CMA CGM Volga — 5BJR2 — position and weather

sailwx.info

Track history (hours):
 
Tides and Currents Weather Stations Pressure Air Temp Water Temp Dewpoint Dewpoint Depression Visibility Wind Speed Wind Dir Waves Ship Positions

CMA CGM Volga

Last reported at 2017-Apr-24 02:35 UTC. Time now 2017-Apr-24 13:21 UTC.
Position N 57°49' E 010°21'.

Length 184 m; draft 9.9 m.

Type: Ship (hazmat cat A). MMSI: 212456000.

Date/timePositionNaut miles runAvg speedWind from/ knotsBaromVisibWave heightAir tempDewpointWater temp
2017-Apr-24 02:35N 57°49' E 010°21'215.8
2017-Apr-24 02:30N 57°48' E 010°24'815.6
2017-Apr-24 02:00N 57°48' E 010°38'815.3
2017-Apr-24 01:30N 57°45' E 010°51'816.6
2017-Apr-24 01:00N 57°39' E 011°03'816.4
2017-Apr-24 00:30N 57°34' E 011°14'816.5
2017-Apr-24 00:00N 57°29' E 011°26'816.5
2017-Apr-23 23:30N 57°21' E 011°31'816.7
2017-Apr-23 23:00N 57°13' E 011°36'1016.5
2017-Apr-23 22:26N 57°04' E 011°42'10814.2
2017-Apr-23 14:50N 55°18' E 011°03'1214.1
2017-Apr-23 14:00N 55°06' E 011°03'815.4
2017-Apr-23 13:30N 54°59' E 011°01'715.0
2017-Apr-23 13:00N 54°53' E 010°53'714.6
2017-Apr-23 12:30N 54°45' E 010°53'612.9
2017-Apr-23 12:00N 54°40' E 010°59'714.9
2017-Apr-23 11:30N 54°37' E 011°10'714.8
2017-Apr-23 11:00N 54°33' E 011°21'715.0
2017-Apr-23 10:30N 54°30' E 011°33'815.0
2017-Apr-23 10:00N 54°27' E 011°45'714.3
2017-Apr-23 09:30N 54°26' E 011°57'714.3
2017-Apr-23 09:00N 54°27' E 012°09'715.0
2017-Apr-23 08:30N 54°33' E 012°15'5114.7
2017-Apr-23 05:01N 54°57' E 013°33'214.5
2017-Apr-23 04:52N 54°58' E 013°37'514.5
2017-Apr-23 04:30N 54°60' E 013°45'714.5
2017-Apr-23 04:00N 55°02' E 013°57'714.3
2017-Apr-23 03:29N 55°07' E 014°08'815.0
2017-Apr-23 02:59N 55°12' E 014°16'715.1
2017-Apr-23 02:29N 55°18' E 014°25'715.1
2017-Apr-23 02:00N 55°24' E 014°33'714.7
2017-Apr-23 01:30N 55°28' E 014°42'814.8
2017-Apr-23 00:59N 55°32' E 014°54'714.8
2017-Apr-23 00:29N 55°36' E 015°05'714.7
2017-Apr-23 00:00N 55°40' E 015°16'28414.5
2017-Apr-22 04:23N 59°45' E 019°42'615.2
2017-Apr-22 04:00N 59°49' E 019°35'815.0
2017-Apr-22 03:29N 59°56' E 019°24'715.4
2017-Apr-22 03:00N 60°01' E 019°15'816.3
2017-Apr-22 02:30N 60°07' E 019°04'714.2
2017-Apr-22 02:00N 60°14' E 018°59'  
2017-Apr-18 03:12N 60°21' E 019°01'513.3
2017-Apr-18 02:51N 60°16' E 019°01'413.0
2017-Apr-18 02:30N 60°12' E 019°05'713.8
2017-Apr-18 02:00N 60°07' E 019°14'713.5
2017-Apr-18 01:30N 60°02' E 019°23'713.5
2017-Apr-18 01:01N 59°56' E 019°31'713.5
2017-Apr-18 00:30N 59°51' E 019°39'11012.4
2017-Apr-17 15:38N 59°36' E 023°15'3 9.8
2017-Apr-17 15:22N 59°37' E 023°20'4 9.7
2017-Apr-17 14:57N 59°38' E 023°28'4 9.8
2017-Apr-17 14:30N 59°39' E 023°36'8410.9
2017-Apr-17 06:48N 59°59' E 026°19'413.9
2017-Apr-17 06:30N 60°00' E 026°26'713.6
2017-Apr-17 06:00N 60°01' E 026°40'713.9
2017-Apr-17 05:30N 59°60' E 026°54'1613.3
2017-Apr-17 04:17N 60°06' E 027°24'714.1
2017-Apr-17 03:49N 60°09' E 027°35'514.0
2017-Apr-17 03:28N 60°12' E 027°44'713.7
2017-Apr-17 02:59N 60°11' E 027°57'714.3
2017-Apr-17 02:28N 60°09' E 028°11'713.7
2017-Apr-17 01:59N 60°06' E 028°23'613.4
2017-Apr-17 01:30N 60°03' E 028°35'611.9
2017-Apr-17 01:00N 59°57' E 028°35'5 9.9
2017-Apr-17 00:30N 59°53' E 028°30'612.4
2017-Apr-17 00:00N 59°47' E 028°25'510.6
2017-Apr-16 23:30N 59°42' E 028°24'2 3.0
2017-Apr-16 22:59N 59°40' E 028°24'0 0.0
2017-Apr-16 22:14N 59°40' E 028°24'0 0.0
2017-Apr-16 21:59N 59°40' E 028°24'0 0.0
2017-Apr-16 21:29N 59°40' E 028°24'0 0.0
2017-Apr-16 20:56N 59°40' E 028°24'0 0.0
2017-Apr-16 20:29N 59°40' E 028°24'0 0.0
2017-Apr-16 19:59N 59°40' E 028°24'0 0.0
2017-Apr-16 19:29N 59°40' E 028°24'0 0.0
2017-Apr-16 18:47N 59°40' E 028°24'0 0.0
2017-Apr-16 18:29N 59°40' E 028°24'0 0.0
2017-Apr-16 17:50N 59°40' E 028°24'0 0.0
2017-Apr-16 17:20N 59°40' E 028°24'0 0.0
2017-Apr-16 16:32N 59°40' E 028°24'0 0.0
2017-Apr-16 16:20N 59°40' E 028°24'0 0.0
2017-Apr-16 15:53N 59°40' E 028°24'0 0.0
2017-Apr-16 15:05N 59°40' E 028°24'0 0.0
2017-Apr-16 14:53N 59°40' E 028°24'0 0.0
2017-Apr-16 13:38N 59°40' E 028°24'0 0.0
2017-Apr-16 13:11N 59°40' E 028°24'0 0.0
2017-Apr-16 12:56N 59°40' E 028°24'0 0.0
2017-Apr-16 12:26N 59°40' E 028°24'0 0.0
2017-Apr-16 11:56N 59°40' E 028°24'0 0.0
2017-Apr-16 11:26N 59°40' E 028°24'0 0.0
2017-Apr-16 10:56N 59°40' E 028°24'0 0.0
2017-Apr-16 10:26N 59°40' E 028°24'0 0.0
2017-Apr-16 09:44N 59°40' E 028°24'0 0.0
2017-Apr-16 09:26N 59°40' E 028°24'0 0.0
2017-Apr-16 08:59N 59°40' E 028°24'0 0.0
2017-Apr-16 08:29N 59°40' E 028°24'0 0.0
2017-Apr-16 07:59N 59°40' E 028°24'0 0.0
2017-Apr-16 07:30N 59°40' E 028°24'0 0.1
2017-Apr-16 06:59N 59°41' E 028°24'2 5.0
2017-Apr-16 06:30N 59°43' E 028°24'510.8
2017-Apr-16 06:00N 59°48' E 028°25'815.2
2017-Apr-16 05:30N 59°55' E 028°32'4 7.9
2017-Apr-16 04:58N 59°59' E 028°35'612.2
2017-Apr-16 04:30N 60°03' E 028°27'713.3
2017-Apr-16 04:00N 60°07' E 028°16'713.3
2017-Apr-16 03:30N 60°09' E 028°03'713.2
2017-Apr-16 03:00N 60°10' E 027°51'612.5
2017-Apr-16 02:30N 60°08' E 027°39'2213.0
2017-Apr-16 00:50N 59°58' E 027°00'513.5
2017-Apr-16 00:29N 59°59' E 026°51'613.3
2017-Apr-16 00:01N 59°59' E 026°38'86 5.2
2017-Apr-15 07:33N 59°38' E 023°53'113.6
2017-Apr-15 07:27N 59°38' E 023°50'613.6
2017-Apr-15 07:00N 59°36' E 023°39'1113.5
2017-Apr-15 06:10N 59°32' E 023°18'  
Track history (hours):
 
Tides and Currents Weather Stations Pressure Air Temp Water Temp Dewpoint Dewpoint Depression Visibility Wind Speed Wind Dir Waves Ship Positions

CMA CGM Volga

Last reported at 2017-Apr-24 02:35 UTC. Time now 2017-Apr-24 13:21 UTC.
Position N 57°49' E 010°21'.

Length 184 m; draft 9.9 m.

Type: Ship (hazmat cat A). MMSI: 212456000.

Date/timePositionNaut miles runAvg speedWind from/ knotsBaromVisibWave heightAir tempDewpointWater temp
2017-Apr-24 02:35N 57°49' E 010°21'215.8
2017-Apr-24 02:30N 57°48' E 010°24'815.6
2017-Apr-24 02:00N 57°48' E 010°38'815.3
2017-Apr-24 01:30N 57°45' E 010°51'816.6
2017-Apr-24 01:00N 57°39' E 011°03'816.4
2017-Apr-24 00:30N 57°34' E 011°14'816.5
2017-Apr-24 00:00N 57°29' E 011°26'816.5
2017-Apr-23 23:30N 57°21' E 011°31'816.7
2017-Apr-23 23:00N 57°13' E 011°36'1016.5
2017-Apr-23 22:26N 57°04' E 011°42'10814.2
2017-Apr-23 14:50N 55°18' E 011°03'1214.1
2017-Apr-23 14:00N 55°06' E 011°03'815.4
2017-Apr-23 13:30N 54°59' E 011°01'715.0
2017-Apr-23 13:00N 54°53' E 010°53'714.6
2017-Apr-23 12:30N 54°45' E 010°53'612.9
2017-Apr-23 12:00N 54°40' E 010°59'714.9
2017-Apr-23 11:30N 54°37' E 011°10'714.8
2017-Apr-23 11:00N 54°33' E 011°21'715.0
2017-Apr-23 10:30N 54°30' E 011°33'815.0
2017-Apr-23 10:00N 54°27' E 011°45'714.3
2017-Apr-23 09:30N 54°26' E 011°57'714.3
2017-Apr-23 09:00N 54°27' E 012°09'715.0
2017-Apr-23 08:30N 54°33' E 012°15'5114.7
2017-Apr-23 05:01N 54°57' E 013°33'214.5
2017-Apr-23 04:52N 54°58' E 013°37'514.5
2017-Apr-23 04:30N 54°60' E 013°45'714.5
2017-Apr-23 04:00N 55°02' E 013°57'714.3
2017-Apr-23 03:29N 55°07' E 014°08'815.0
2017-Apr-23 02:59N 55°12' E 014°16'715.1
2017-Apr-23 02:29N 55°18' E 014°25'715.1
2017-Apr-23 02:00N 55°24' E 014°33'714.7
2017-Apr-23 01:30N 55°28' E 014°42'814.8
2017-Apr-23 00:59N 55°32' E 014°54'714.8
2017-Apr-23 00:29N 55°36' E 015°05'714.7
2017-Apr-23 00:00N 55°40' E 015°16'28414.5
2017-Apr-22 04:23N 59°45' E 019°42'615.2
2017-Apr-22 04:00N 59°49' E 019°35'815.0
2017-Apr-22 03:29N 59°56' E 019°24'715.4
2017-Apr-22 03:00N 60°01' E 019°15'816.3
2017-Apr-22 02:30N 60°07' E 019°04'714.2
2017-Apr-22 02:00N 60°14' E 018°59'  
2017-Apr-18 03:12N 60°21' E 019°01'513.3
2017-Apr-18 02:51N 60°16' E 019°01'413.0
2017-Apr-18 02:30N 60°12' E 019°05'713.8
2017-Apr-18 02:00N 60°07' E 019°14'713.5
2017-Apr-18 01:30N 60°02' E 019°23'713.5
2017-Apr-18 01:01N 59°56' E 019°31'713.5
2017-Apr-18 00:30N 59°51' E 019°39'11012.4
2017-Apr-17 15:38N 59°36' E 023°15'3 9.8
2017-Apr-17 15:22N 59°37' E 023°20'4 9.7
2017-Apr-17 14:57N 59°38' E 023°28'4 9.8
2017-Apr-17 14:30N 59°39' E 023°36'8410.9
2017-Apr-17 06:48N 59°59' E 026°19'413.9
2017-Apr-17 06:30N 60°00' E 026°26'713.6
2017-Apr-17 06:00N 60°01' E 026°40'713.9
2017-Apr-17 05:30N 59°60' E 026°54'1613.3
2017-Apr-17 04:17N 60°06' E 027°24'714.1
2017-Apr-17 03:49N 60°09' E 027°35'514.0
2017-Apr-17 03:28N 60°12' E 027°44'713.7
2017-Apr-17 02:59N 60°11' E 027°57'714.3
2017-Apr-17 02:28N 60°09' E 028°11'713.7
2017-Apr-17 01:59N 60°06' E 028°23'613.4
2017-Apr-17 01:30N 60°03' E 028°35'611.9
2017-Apr-17 01:00N 59°57' E 028°35'5 9.9
2017-Apr-17 00:30N 59°53' E 028°30'612.4
2017-Apr-17 00:00N 59°47' E 028°25'510.6
2017-Apr-16 23:30N 59°42' E 028°24'2 3.0
2017-Apr-16 22:59N 59°40' E 028°24'0 0.0
2017-Apr-16 22:14N 59°40' E 028°24'0 0.0
2017-Apr-16 21:59N 59°40' E 028°24'0 0.0
2017-Apr-16 21:29N 59°40' E 028°24'0 0.0
2017-Apr-16 20:56N 59°40' E 028°24'0 0.0
2017-Apr-16 20:29N 59°40' E 028°24'0 0.0
2017-Apr-16 19:59N 59°40' E 028°24'0 0.0
2017-Apr-16 19:29N 59°40' E 028°24'0 0.0
2017-Apr-16 18:47N 59°40' E 028°24'0 0.0
2017-Apr-16 18:29N 59°40' E 028°24'0 0.0
2017-Apr-16 17:50N 59°40' E 028°24'0 0.0
2017-Apr-16 17:20N 59°40' E 028°24'0 0.0
2017-Apr-16 16:32N 59°40' E 028°24'0 0.0
2017-Apr-16 16:20N 59°40' E 028°24'0 0.0
2017-Apr-16 15:53N 59°40' E 028°24'0 0.0
2017-Apr-16 15:05N 59°40' E 028°24'0 0.0
2017-Apr-16 14:53N 59°40' E 028°24'0 0.0
2017-Apr-16 13:38N 59°40' E 028°24'0 0.0
2017-Apr-16 13:11N 59°40' E 028°24'0 0.0
2017-Apr-16 12:56N 59°40' E 028°24'0 0.0
2017-Apr-16 12:26N 59°40' E 028°24'0 0.0
2017-Apr-16 11:56N 59°40' E 028°24'0 0.0
2017-Apr-16 11:26N 59°40' E 028°24'0 0.0
2017-Apr-16 10:56N 59°40' E 028°24'0 0.0
2017-Apr-16 10:26N 59°40' E 028°24'0 0.0
2017-Apr-16 09:44N 59°40' E 028°24'0 0.0
2017-Apr-16 09:26N 59°40' E 028°24'0 0.0
2017-Apr-16 08:59N 59°40' E 028°24'0 0.0
2017-Apr-16 08:29N 59°40' E 028°24'0 0.0
2017-Apr-16 07:59N 59°40' E 028°24'0 0.0
2017-Apr-16 07:30N 59°40' E 028°24'0 0.1
2017-Apr-16 06:59N 59°41' E 028°24'2 5.0
2017-Apr-16 06:30N 59°43' E 028°24'510.8
2017-Apr-16 06:00N 59°48' E 028°25'815.2
2017-Apr-16 05:30N 59°55' E 028°32'4 7.9
2017-Apr-16 04:58N 59°59' E 028°35'612.2
2017-Apr-16 04:30N 60°03' E 028°27'713.3
2017-Apr-16 04:00N 60°07' E 028°16'713.3
2017-Apr-16 03:30N 60°09' E 028°03'713.2
2017-Apr-16 03:00N 60°10' E 027°51'612.5
2017-Apr-16 02:30N 60°08' E 027°39'2213.0
2017-Apr-16 00:50N 59°58' E 027°00'513.5
2017-Apr-16 00:29N 59°59' E 026°51'613.3
2017-Apr-16 00:01N 59°59' E 026°38'86 5.2
2017-Apr-15 07:33N 59°38' E 023°53'113.6
2017-Apr-15 07:27N 59°38' E 023°50'613.6
2017-Apr-15 07:00N 59°36' E 023°39'1113.5
2017-Apr-15 06:10N 59°32' E 023°18'  

Dump ship's entire track history